Portada
METAR-TAF:

METAR-TAF

Aeroports :

Barquisimeto, Veneçuela

latitud: 10-04N, longitud: 069-19W, altitud: 613 m

Observació

L'informe es va fer fa 1 hora i 21 minuts, a les 20:00 UTC
Vent 7 kt del Est/Sud-Est
Temperatura 31°C
Humitat 52%
Pressió 1010 hPa
Visibilitat 10 km o més
Escasses núvols a una alçada de 1600 ft
Cel ennuvolat a una alçada de 30000 ft

METAR: SVBM 172000Z 11007KT 9999 FEW016 BKN300 31/20 Q1010

Hora: 17:21 (21:21 UTC)

Pronòstic

L'informe es va fer fa 3 hores i 21 minuts, a les 18:00 UTC
Pronòstic vàlid del 17 a les 18 UTC al 18 a les 18 UTC
Vent 5 kt del Est
Visibilitat 10 km o més
Núvols disperses a una alçada de 1600 ft
Núvols disperses a una alçada de 8000 ft
Evolucionant progressivament
l' 17 a les 20 UTC al 18 a les 00 UTC
Cel ennuvolat a una alçada de 1300 ft

TAF: SVBM 171800Z 1718/1818 09005KT 9999 SCT016 SCT080 TX33/1718Z TN21/1808Z BECMG 1720/1800 07009 BKN013

Observacions i pronòstics meteorològics de més de 4000 aeroports (METAR i TAF).

Les estacions disponibles són els punts grocs i vermells al mapa.

Posi el ratolí al punt desitjat per veure el nom de l'estació.

Feu clic per veure les observacions i els pronòstics meteorològics.

Per canviar el mapa: feu clic els botons verds amb una creu de color negre per apropar; al botó verd amb un guió per allunyar la imatge; o en les fletxes verdes per a mapes adjacents.


METAR-TAF: